Time;durP1;ratioP1;P1;durP2;ratioP2;P2;SDS_P1;SDS_P2;PMS_P1;PMS_P2;Temp;Humidity;BMP_temperature;BMP_pressure;BME280_temperature;BME280_humidity;BME280_pressure;Samples;Min_cycle;Max_cycle;Signal;HPM_P1;HPM_P2
2023/07/14 00:00:52;;;;;;;;;;;;;;;15.92;100.00;98899.04;136572;1276;22508;-80
2023/07/14 00:04:09;;;;;;;16.10;9.70;;;;;;;15.90;100.00;98900.09;136625;1276;22230;-81
2023/07/14 00:07:12;;;;;;;14.80;9.20;;;;;;;15.89;100.00;98900.10;136866;1276;22532;-83
2023/07/14 00:10:15;;;;;;;19.00;11.10;;;;;;;15.88;100.00;98901.70;136923;1276;22500;-82
2023/07/14 00:13:17;;;;;;;10.90;9.80;;;;;;;15.87;100.00;98906.27;137212;1276;22221;-81
2023/07/14 00:16:19;;;;;;;18.30;10.20;;;;;;;15.87;100.00;98908.37;137151;1276;22218;-82
2023/07/14 00:19:22;;;;;;;13.10;10.50;;;;;;;15.86;100.00;98908.03;137168;1276;22208;-82
2023/07/14 00:22:24;;;;;;;13.60;11.40;;;;;;;15.85;100.00;98909.44;137129;1277;22230;-82
2023/07/14 00:25:27;;;;;;;11.50;10.40;;;;;;;15.85;100.00;98907.52;137163;1277;22390;-82
2023/07/14 00:28:29;;;;;;;16.00;10.20;;;;;;;15.80;100.00;98909.48;137226;1277;22215;-82
2023/07/14 00:31:32;;;;;;;11.30;9.50;;;;;;;15.72;100.00;98909.20;137230;1277;22849;-82
2023/07/14 00:34:34;;;;;;;13.20;9.80;;;;;;;15.71;100.00;98909.39;137213;1277;22236;-82
2023/07/14 00:37:36;;;;;;;11.00;10.00;;;;;;;15.65;100.00;98912.77;137338;1275;22362;-81
2023/07/14 00:40:39;;;;;;;30.80;18.20;;;;;;;15.61;100.00;98912.79;137266;1275;22555;-82
2023/07/14 00:43:41;;;;;;;59.60;16.30;;;;;;;15.58;100.00;98909.61;137208;1274;22129;-81
2023/07/14 00:46:44;;;;;;;26.80;10.90;;;;;;;15.57;100.00;98909.27;137262;1274;22205;-81
2023/07/14 00:49:46;;;;;;;30.60;8.80;;;;;;;15.53;100.00;98908.39;137303;1275;22556;-81
2023/07/14 00:52:49;;;;;;;16.40;8.80;;;;;;;15.51;100.00;98909.46;137285;1275;22535;-80
2023/07/14 00:55:53;;;;;;;16.60;8.40;;;;;;;15.50;100.00;98911.05;137306;1275;22288;-81
2023/07/14 00:58:56;;;;;;;18.10;10.30;;;;;;;15.52;100.00;98908.23;137407;1274;22526;-80
2023/07/14 01:01:58;;;;;;;20.40;13.20;;;;;;;15.53;100.00;98908.05;137321;1274;22234;-81
2023/07/14 01:05:01;;;;;;;16.80;13.80;;;;;;;15.54;100.00;98910.66;137122;1275;22216;-80
2023/07/14 01:08:03;;;;;;;18.50;11.50;;;;;;;15.51;100.00;98907.71;137077;1274;22124;-80
2023/07/14 01:11:06;;;;;;;14.10;9.70;;;;;;;15.43;100.00;98915.65;137499;1274;22198;-80
2023/07/14 01:14:08;;;;;;;13.30;11.40;;;;;;;15.36;100.00;98919.73;137467;1275;22281;-80
2023/07/14 01:17:10;;;;;;;11.10;9.00;;;;;;;15.33;100.00;98922.04;137436;1275;22395;-79
2023/07/14 01:20:14;;;;;;;8.40;7.50;;;;;;;15.29;100.00;98928.02;137318;1274;22585;-80
2023/07/14 01:23:17;;;;;;;13.10;10.40;;;;;;;15.28;100.00;98932.76;137355;1271;22159;-81
2023/07/14 01:26:19;;;;;;;14.90;10.00;;;;;;;15.28;100.00;98936.09;137320;1275;22954;-81
2023/07/14 01:29:22;;;;;;;10.00;8.90;;;;;;;15.27;100.00;98937.14;137215;1275;24823;-81
2023/07/14 01:32:24;;;;;;;14.30;8.40;;;;;;;15.19;100.00;98945.08;137290;1275;22122;-81
2023/07/14 01:35:27;;;;;;;163.10;18.10;;;;;;;15.10;100.00;98950.38;137347;1275;22304;-81
2023/07/14 01:38:29;;;;;;;26.90;12.70;;;;;;;15.06;100.00;98955.84;137280;1274;22261;-80
2023/07/14 01:41:32;;;;;;;25.30;17.30;;;;;;;15.06;100.00;98963.71;137308;1275;22137;-80
2023/07/14 01:44:34;;;;;;;22.60;18.40;;;;;;;15.06;100.00;98960.21;137279;1274;22427;-80
2023/07/14 01:47:37;;;;;;;55.10;23.50;;;;;;;15.07;100.00;98965.46;137226;1274;22259;-80
2023/07/14 01:50:40;;;;;;;26.60;19.00;;;;;;;15.07;100.00;98968.80;137317;1275;22404;-80
2023/07/14 01:53:42;;;;;;;21.30;17.60;;;;;;;15.09;100.00;98966.34;137296;1274;22631;-80
2023/07/14 01:56:44;;;;;;;22.10;19.90;;;;;;;15.13;100.00;98964.73;137447;1274;22615;-80
2023/07/14 01:59:47;;;;;;;17.60;13.80;;;;;;;15.13;100.00;98970.70;137411;1274;22211;-80
2023/07/14 02:02:49;;;;;;;14.00;10.30;;;;;;;15.13;100.00;98972.27;137309;1274;22983;-81
2023/07/14 02:05:52;;;;;;;36.90;19.00;;;;;;;15.14;100.00;98973.84;137385;1274;22642;-82
2023/07/14 02:08:58;;;;;;;37.00;20.90;;;;;;;15.15;100.00;98974.02;137345;1274;22423;-80
2023/07/14 02:12:00;;;;;;;18.80;12.10;;;;;;;15.12;100.00;98974.73;137301;1274;22544;-80
2023/07/14 02:15:03;;;;;;;15.60;12.00;;;;;;;15.02;100.00;98973.73;137523;1274;22306;-83
2023/07/14 02:18:06;;;;;;;16.80;9.30;;;;;;;14.93;100.00;98976.04;137477;1274;22191;-81
2023/07/14 02:21:08;;;;;;;11.10;8.10;;;;;;;14.85;100.00;98983.06;137385;1274;22316;-80
2023/07/14 02:24:11;;;;;;;29.70;9.60;;;;;;;14.77;100.00;98990.45;137396;1274;22973;-78
2023/07/14 02:27:13;;;;;;;18.20;13.10;;;;;;;14.75;100.00;98992.38;137421;1274;22243;-80
2023/07/14 02:30:16;;;;;;;15.80;14.20;;;;;;;14.77;100.00;98994.83;137391;1274;23078;-80
2023/07/14 02:33:18;;;;;;;17.00;14.70;;;;;;;14.80;100.00;98998.33;137336;1274;22442;-80
2023/07/14 02:36:21;;;;;;;16.00;10.70;;;;;;;14.81;100.00;99003.75;137376;1274;22233;-80
2023/07/14 02:39:23;;;;;;;12.00;10.90;;;;;;;14.83;100.00;99006.20;137223;1274;22970;-80
2023/07/14 02:42:26;;;;;;;17.10;11.90;;;;;;;14.84;100.00;99008.30;137390;1274;22199;-80
2023/07/14 02:45:28;;;;;;;13.00;11.60;;;;;;;14.84;100.00;99012.85;137386;1274;22306;-80
2023/07/14 02:48:31;;;;;;;15.40;12.40;;;;;;;14.84;100.00;99017.94;137380;1274;22270;-80
2023/07/14 02:51:33;;;;;;;31.10;28.00;;;;;;;14.85;100.00;99023.20;137349;1274;22204;-80
2023/07/14 02:54:37;;;;;;;37.00;29.30;;;;;;;14.86;100.00;99024.41;137440;1274;22257;-78
2023/07/14 02:57:39;;;;;;;22.00;19.90;;;;;;;14.87;100.00;99026.16;137341;1271;22505;-80
2023/07/14 03:00:42;;;;;;;13.70;11.80;;;;;;;14.89;100.00;99029.66;137186;1266;25329;-80
2023/07/14 03:03:45;;;;;;;12.60;10.50;;;;;;;14.94;100.00;99032.80;137322;1274;22180;-80
2023/07/14 03:06:48;;;;;;;13.00;9.60;;;;;;;14.97;100.00;99034.73;137376;1274;22221;-80
2023/07/14 03:09:50;;;;;;;11.00;9.00;;;;;;;15.01;100.00;99036.46;137261;1274;22221;-80
2023/07/14 03:12:53;;;;;;;10.20;8.90;;;;;;;15.03;100.00;99042.94;137319;1274;22404;-78
2023/07/14 03:15:57;;;;;;;18.80;9.80;;;;;;;15.05;100.00;99040.13;137354;1274;22402;-81
2023/07/14 03:18:59;;;;;;;18.20;8.80;;;;;;;15.08;100.00;99043.98;137271;1274;22249;-80
2023/07/14 03:22:04;;;;;;;19.00;10.40;;;;;;;15.13;100.00;99048.34;137373;1274;22230;-80
2023/07/14 03:25:06;;;;;;;16.40;14.70;;;;;;;15.17;100.00;99054.48;137329;1274;22583;-80
2023/07/14 03:28:08;;;;;;;21.00;14.40;;;;;;;15.21;100.00;99050.60;137282;1274;22555;-81
2023/07/14 03:31:11;;;;;;;19.60;17.50;;;;;;;15.25;100.00;99059.17;137341;1274;22641;-80
2023/07/14 03:34:13;;;;;;;31.00;20.90;;;;;;;15.26;100.00;99059.52;137304;1274;22131;-78
2023/07/14 03:37:16;;;;;;;24.00;20.70;;;;;;;15.33;100.00;99062.48;137279;1274;23039;-80
2023/07/14 03:40:18;;;;;;;25.90;18.80;;;;;;;15.40;100.00;99063.85;137414;1274;22267;-80
2023/07/14 03:43:21;;;;;;;21.30;19.20;;;;;;;15.49;100.00;99062.40;137407;1274;22311;-80
2023/07/14 03:46:23;;;;;;;64.70;16.70;;;;;;;15.54;100.00;99061.50;137358;1274;22242;-79
2023/07/14 03:49:25;;;;;;;24.70;11.10;;;;;;;15.59;100.00;99060.11;137254;1274;22570;-78
2023/07/14 03:52:28;;;;;;;38.90;9.40;;;;;;;15.63;100.00;99061.17;137334;1274;23068;-80
2023/07/14 03:55:30;;;;;;;17.70;8.20;;;;;;;15.64;100.00;99061.88;137314;1268;22310;-79
2023/07/14 03:58:33;;;;;;;50.20;10.00;;;;;;;15.67;100.00;99061.69;137448;1274;22279;-80
2023/07/14 04:01:35;;;;;;;31.20;8.30;;;;;;;15.72;100.00;99058.50;137408;1274;22254;-80
2023/07/14 04:04:38;;;;;;;16.80;8.40;;;;;;;15.75;100.00;99064.63;137355;1274;22212;-80
2023/07/14 04:07:40;;;;;;;8.00;7.00;;;;;;;15.81;100.00;99065.98;137364;1274;22267;-80
2023/07/14 04:10:43;;;;;;;7.80;7.00;;;;;;;15.90;100.00;99065.40;137323;1274;22200;-81
2023/07/14 04:13:45;;;;;;;13.70;7.40;;;;;;;16.01;100.00;99067.10;137367;1274;22201;-80
2023/07/14 04:16:48;;;;;;;9.50;7.10;;;;;;;16.15;100.00;99069.98;137343;1274;22290;-80
2023/07/14 04:19:51;;;;;;;8.90;7.60;;;;;;;16.29;100.00;99070.23;137374;1274;22215;-80
2023/07/14 04:22:53;;;;;;;15.70;7.20;;;;;;;16.39;100.00;99073.85;137302;1274;22188;-79
2023/07/14 04:25:56;;;;;;;9.70;6.70;;;;;;;16.57;100.00;99076.72;137278;1274;22225;-79
2023/07/14 04:29:00;;;;;;;14.80;8.80;;;;;;;16.73;100.00;99081.52;137357;1274;22334;-79
2023/07/14 04:32:06;;;;;;;11.40;10.20;;;;;;;16.86;100.00;99074.20;137381;1274;22836;-80
2023/07/14 04:35:08;;;;;;;12.70;10.00;;;;;;;17.03;100.00;99075.42;137315;1274;22214;-80
2023/07/14 04:38:11;;;;;;;10.50;9.40;;;;;;;17.22;100.00;99081.74;137352;1274;22194;-80
2023/07/14 04:41:14;;;;;;;30.40;12.30;;;;;;;17.42;100.00;99079.42;137354;1274;22237;-80
2023/07/14 04:44:16;;;;;;;13.10;10.00;;;;;;;17.62;100.00;99084.45;137457;1274;22307;-80
2023/07/14 04:47:19;;;;;;;10.50;7.30;;;;;;;17.76;100.00;99089.05;137289;1274;22452;-80
2023/07/14 04:50:21;;;;;;;11.60;7.10;;;;;;;17.96;100.00;99091.59;137380;1274;22171;-80
2023/07/14 04:53:24;;;;;;;11.70;9.00;;;;;;;18.14;100.00;99095.05;137283;1274;24899;-80
2023/07/14 04:56:26;;;;;;;13.80;9.30;;;;;;;18.31;100.00;99095.52;137367;1274;22077;-80
2023/07/14 04:59:29;;;;;;;15.10;8.50;;;;;;;18.50;100.00;99096.09;137200;1274;22229;-81
2023/07/14 05:02:31;;;;;;;14.20;8.10;;;;;;;18.69;100.00;99093.70;137303;1274;22555;-83
2023/07/14 05:05:38;;;;;;;18.10;7.90;;;;;;;18.77;100.00;99101.33;137282;1274;22428;-81
2023/07/14 05:08:53;;;;;;;11.20;7.40;;;;;;;18.94;100.00;99097.67;137300;1274;22273;-83
2023/07/14 05:11:56;;;;;;;10.90;6.70;;;;;;;19.12;100.00;99102.48;137406;1274;22406;-80
2023/07/14 05:14:58;;;;;;;17.70;6.70;;;;;;;19.38;100.00;99101.48;137262;1274;22213;-81
2023/07/14 05:18:01;;;;;;;8.80;5.40;;;;;;;19.75;100.00;99099.67;137372;1274;22315;-80
2023/07/14 05:21:04;;;;;;;8.80;5.30;;;;;;;19.99;100.00;99102.54;137521;1274;22212;-79
2023/07/14 05:24:07;;;;;;;10.20;4.80;;;;;;;20.05;100.00;99103.83;137548;1274;22224;-80
2023/07/14 05:27:09;;;;;;;8.80;4.90;;;;;;;20.06;100.00;99112.64;137494;1274;22831;-79
2023/07/14 05:30:12;;;;;;;10.60;5.60;;;;;;;19.90;100.00;99112.44;137474;1274;22210;-80
2023/07/14 05:33:16;;;;;;;11.40;5.80;;;;;;;19.90;100.00;99115.95;137432;1274;22786;-80
2023/07/14 05:36:18;;;;;;;9.20;5.00;;;;;;;20.06;100.00;99112.29;137466;1274;22300;-79
2023/07/14 05:39:21;;;;;;;7.30;4.50;;;;;;;20.21;100.00;99117.42;137384;1275;22184;-80
2023/07/14 05:42:23;;;;;;;6.40;4.30;;;;;;;20.22;100.00;99116.87;137377;1274;22119;-80
2023/07/14 05:45:26;;;;;;;7.90;4.80;;;;;;;20.40;100.00;99112.95;137356;1274;22751;-80
2023/07/14 05:48:28;;;;;;;9.90;4.70;;;;;;;20.38;100.00;99118.27;137348;1274;22205;-79
2023/07/14 05:51:31;;;;;;;8.20;4.90;;;;;;;20.26;100.00;99114.31;137327;1274;22240;-79
2023/07/14 05:54:33;;;;;;;9.50;4.90;;;;;;;20.37;100.00;99108.58;137343;1274;22188;-79
2023/07/14 05:57:36;;;;;;;9.40;4.40;;;;;;;20.52;100.00;99108.94;137370;1274;23125;-80
2023/07/14 06:00:39;;;;;;;6.40;4.50;;;;;;;20.68;100.00;99106.96;137319;1274;22677;-83
2023/07/14 06:03:41;;;;;;;12.10;4.90;;;;;;;20.78;100.00;99106.34;137349;1274;22451;-83
2023/07/14 06:06:44;;;;;;;6.40;5.10;;;;;;;20.88;100.00;99107.55;137358;1274;22187;-83
2023/07/14 06:09:46;;;;;;;10.80;4.60;;;;;;;21.00;100.00;99110.44;137294;1274;22710;-84
2023/07/14 06:12:49;;;;;;;6.60;4.20;;;;;;;21.10;100.00;99106.08;137409;1273;22206;-84
2023/07/14 06:15:51;;;;;;;5.20;4.70;;;;;;;21.28;100.00;99106.17;137319;1273;22854;-83
2023/07/14 06:18:54;;;;;;;9.30;4.60;;;;;;;21.38;100.00;99104.83;137457;1274;22224;-84
2023/07/14 06:21:56;;;;;;;6.90;4.80;;;;;;;21.50;100.00;99103.96;137431;1274;22716;-84
2023/07/14 06:24:59;;;;;;;5.20;4.40;;;;;;;21.56;100.00;99105.01;137432;1274;22334;-81
2023/07/14 06:28:07;;;;;;;5.60;4.60;;;;;;;21.71;100.00;99108.51;137381;1273;22212;-78
2023/07/14 06:31:10;;;;;;;7.90;4.70;;;;;;;21.85;100.00;99111.64;137406;1274;22195;-79
2023/07/14 06:34:13;;;;;;;8.40;4.50;;;;;;;21.89;100.00;99111.16;137358;1274;22197;-81
2023/07/14 06:37:16;;;;;;;13.80;4.90;;;;;;;21.98;100.00;99116.77;137358;1274;22289;-80
2023/07/14 06:40:18;;;;;;;5.50;4.30;;;;;;;22.05;100.00;99121.73;137427;1273;22229;-84
2023/07/14 06:43:21;;;;;;;7.40;4.10;;;;;;;22.18;100.00;99123.80;137435;1273;22222;-81
2023/07/14 06:46:23;;;;;;;6.00;4.20;;;;;;;22.33;100.00;99122.61;137447;1273;22853;-81
2023/07/14 06:49:26;;;;;;;6.20;4.20;;;;;;;22.61;100.00;99120.33;137435;1273;22273;-82
2023/07/14 06:52:28;;;;;;;6.00;4.00;;;;;;;22.85;100.00;99122.77;137433;1273;22444;-80
2023/07/14 06:55:31;;;;;;;9.70;4.40;;;;;;;23.13;100.00;99122.70;137397;1273;22296;-80
2023/07/14 06:58:33;;;;;;;6.40;4.10;;;;;;;23.20;100.00;99122.64;137408;1273;22348;-79
2023/07/14 07:01:36;;;;;;;5.20;3.70;;;;;;;23.09;100.00;99123.20;137418;1273;22083;-81
2023/07/14 07:04:38;;;;;;;6.40;5.10;;;;;;;23.22;100.00;99120.09;137421;1273;22341;-79
2023/07/14 07:07:41;;;;;;;9.10;4.40;;;;;;;23.49;100.00;99125.35;137397;1273;22179;-79
2023/07/14 07:10:43;;;;;;;8.40;4.20;;;;;;;23.66;100.00;99122.66;137343;1274;22311;-81
2023/07/14 07:13:46;;;;;;;8.60;4.30;;;;;;;23.85;100.00;99126.19;137324;1274;22269;-80
2023/07/14 07:16:48;;;;;;;9.20;4.00;;;;;;;23.99;100.00;99128.33;137330;1274;22953;-79
2023/07/14 07:19:51;;;;;;;6.50;4.20;;;;;;;24.10;100.00;99129.12;137304;1274;22357;-78
2023/07/14 07:22:53;;;;;;;5.60;3.80;;;;;;;24.14;100.00;99128.28;137307;1274;22812;-80
2023/07/14 07:25:56;;;;;;;6.50;3.90;;;;;;;24.11;100.00;99123.08;137347;1274;22167;-80
2023/07/14 07:28:58;;;;;;;6.60;3.80;;;;;;;24.23;100.00;99123.84;137289;1274;22434;-79
2023/07/14 07:32:03;;;;;;;6.00;3.50;;;;;;;24.20;63.14;99119.33;137396;1274;22301;-79
2023/07/14 07:35:05;;;;;;;6.40;3.50;;;;;;;24.35;62.72;99126.62;137390;1274;22187;-78
2023/07/14 07:38:07;;;;;;;8.60;3.70;;;;;;;24.44;62.70;99123.24;137367;1274;22218;-79
2023/07/14 07:41:10;;;;;;;9.50;3.60;;;;;;;24.50;62.57;99120.00;137375;1273;22176;-78
2023/07/14 07:44:13;;;;;;;6.90;4.40;;;;;;;24.75;62.27;99119.11;137387;1274;22028;-82
2023/07/14 07:47:15;;;;;;;8.10;3.70;;;;;;;24.91;59.41;99119.55;137369;1260;22203;-78
2023/07/14 07:50:18;;;;;;;6.00;3.60;;;;;;;24.94;59.59;99118.70;137410;1274;22688;-78
2023/07/14 07:53:23;;;;;;;6.20;3.60;;;;;;;25.01;60.21;99120.73;137338;1274;22292;-79
2023/07/14 07:56:26;;;;;;;7.40;3.20;;;;;;;25.16;56.97;99126.35;137293;1274;22162;-79
2023/07/14 07:59:28;;;;;;;6.90;3.30;;;;;;;25.06;55.87;99126.56;137352;1274;22443;-80
2023/07/14 08:02:31;;;;;;;5.30;3.50;;;;;;;25.06;55.91;99131.17;137303;1274;22284;-80
2023/07/14 08:05:33;;;;;;;4.80;3.10;;;;;;;25.11;56.87;99133.30;137377;1274;22311;-80
2023/07/14 08:08:36;;;;;;;7.10;3.00;;;;;;;25.39;56.78;99134.98;137346;1263;22380;-79
2023/07/14 08:11:38;;;;;;;6.10;3.50;;;;;;;25.45;55.86;99139.88;137297;1274;22574;-78
2023/07/14 08:14:41;;;;;;;6.00;3.20;;;;;;;25.54;56.08;99139.13;137340;1274;22312;-79
2023/07/14 08:17:43;;;;;;;6.20;3.20;;;;;;;25.66;55.30;99146.80;137304;1274;22726;-79
2023/07/14 08:20:46;;;;;;;4.90;3.10;;;;;;;25.74;54.99;99147.88;137342;1274;22829;-79
2023/07/14 08:23:48;;;;;;;3.60;3.30;;;;;;;25.92;55.49;99144.58;137372;1274;23044;-79
2023/07/14 08:26:50;;;;;;;5.50;3.30;;;;;;;26.13;54.19;99150.23;137358;1274;22341;-78
2023/07/14 08:29:53;;;;;;;6.40;2.90;;;;;;;26.19;53.37;99148.89;137331;1274;22255;-80
2023/07/14 08:32:56;;;;;;;391.00;30.10;;;;;;;26.19;52.87;99150.65;137356;1274;22194;-78
2023/07/14 08:36:00;;;;;;;4.40;3.10;;;;;;;26.34;53.18;99148.70;137318;1274;22187;-78
2023/07/14 08:39:02;;;;;;;4.30;3.00;;;;;;;26.39;51.51;99151.13;137400;1274;22395;-78
2023/07/14 08:42:05;;;;;;;5.20;2.90;;;;;;;26.15;50.98;99152.64;137361;1274;22258;-80
2023/07/14 08:45:08;;;;;;;7.70;2.90;;;;;;;26.11;52.05;99152.30;137351;1274;23119;-78
2023/07/14 08:48:11;;;;;;;3.60;3.10;;;;;;;26.10;51.66;99154.45;137366;1274;22213;-79
2023/07/14 08:51:13;;;;;;;4.40;3.20;;;;;;;26.06;51.52;99152.34;137401;1274;22167;-80
2023/07/14 08:54:15;;;;;;;6.70;3.10;;;;;;;26.13;52.18;99147.39;137346;1274;22237;-79
2023/07/14 08:57:18;;;;;;;6.50;2.80;;;;;;;26.20;51.09;99144.90;137377;1274;22403;-79
2023/07/14 09:00:20;;;;;;;5.30;2.80;;;;;;;26.34;50.40;99145.34;137374;1274;22260;-80
2023/07/14 09:03:24;;;;;;;3.10;2.80;;;;;;;26.30;49.59;99148.87;137367;1274;22669;-78
2023/07/14 09:06:26;;;;;;;;;;;;;;;26.26;50.08;99149.25;137357;1274;22302;-80
2023/07/14 09:09:29;;;;;;;4.80;2.70;;;;;;;26.41;50.85;99141.05;137274;1274;22201;-80
2023/07/14 09:12:31;;;;;;;5.30;2.80;;;;;;;26.73;50.17;99144.30;137338;1274;22831;-78
2023/07/14 09:15:34;;;;;;;9.00;3.40;;;;;;;26.99;48.72;99148.25;137327;1274;22299;-79
2023/07/14 09:18:36;;;;;;;7.70;3.20;;;;;;;26.86;47.02;99143.67;137326;1274;22325;-79
2023/07/14 09:21:39;;;;;;;4.60;3.00;;;;;;;26.92;47.03;99140.38;137334;1274;22269;-79
2023/07/14 09:24:41;;;;;;;4.20;3.00;;;;;;;26.93;46.29;99141.38;137334;1274;22249;-79
2023/07/14 09:27:44;;;;;;;4.40;2.90;;;;;;;26.93;47.22;99141.41;137335;1274;22220;-80
2023/07/14 09:30:47;;;;;;;11.30;3.20;;;;;;;26.89;45.83;99139.97;137321;1274;22372;-78
2023/07/14 09:33:49;;;;;;;3.00;2.60;;;;;;;26.96;46.68;99131.23;137365;1274;22724;-82
2023/07/14 09:36:51;;;;;;;96.00;8.80;;;;;;;27.25;44.61;99133.71;137428;1274;22246;-81
2023/07/14 09:39:54;;;;;;;5.40;2.90;;;;;;;27.21;43.84;99133.56;137356;1274;22337;-80
2023/07/14 09:42:57;;;;;;;26.30;3.90;;;;;;;27.21;43.59;99135.54;137324;1274;22422;-81
2023/07/14 09:46:00;;;;;;;3.90;2.80;;;;;;;27.40;43.99;99132.57;137367;1274;22869;-81
2023/07/14 09:49:06;;;;;;;4.60;2.90;;;;;;;27.44;42.32;99134.33;137319;1258;22402;-79
2023/07/14 09:52:08;;;;;;;3.70;2.50;;;;;;;27.27;43.07;99129.64;137345;1274;22273;-80
2023/07/14 09:55:11;;;;;;;4.60;2.70;;;;;;;27.29;42.49;99125.63;137334;1274;22429;-79
2023/07/14 09:58:16;;;;;;;7.50;2.90;;;;;;;27.38;43.55;99121.77;137420;1274;22202;-79
2023/07/14 10:01:19;;;;;;;3.20;2.60;;;;;;;27.40;42.26;99120.62;137360;1274;22257;-80
2023/07/14 10:04:21;;;;;;;18.80;3.30;;;;;;;27.38;41.22;99113.74;137345;1274;22209;-79
2023/07/14 10:07:24;;;;;;;26.20;4.50;;;;;;;27.67;41.95;99104.70;137344;1274;22154;-80
2023/07/14 10:10:26;;;;;;;4.10;2.40;;;;;;;28.14;41.40;99106.27;137229;1274;22171;-80
2023/07/14 10:13:32;;;;;;;4.20;2.50;;;;;;;28.32;41.18;99106.91;137374;1274;22574;-81
2023/07/14 10:16:35;;;;;;;3.40;2.40;;;;;;;28.44;40.91;99100.65;137377;1274;22291;-81
2023/07/14 10:19:37;;;;;;;3.30;2.10;;;;;;;28.67;40.24;99103.14;137367;1274;22112;-79
2023/07/14 10:22:40;;;;;;;2.80;2.10;;;;;;;28.77;39.00;99106.14;137362;1274;22667;-79
2023/07/14 10:25:42;;;;;;;11.40;2.60;;;;;;;28.76;37.73;99092.93;137363;1274;22346;-79
2023/07/14 10:28:47;;;;;;;3.00;2.70;;;;;;;28.63;37.81;99099.98;137382;1274;22219;-80
2023/07/14 10:31:50;;;;;;;3.90;1.70;;;;;;;28.56;38.02;99102.69;137322;1274;22300;-80
2023/07/14 10:34:52;;;;;;;4.00;2.20;;;;;;;28.60;37.74;99104.45;137352;1274;22210;-79
2023/07/14 10:37:55;;;;;;;2.20;2.00;;;;;;;28.66;38.30;99099.25;137310;1274;22255;-81
2023/07/14 10:40:57;;;;;;;2.70;2.30;;;;;;;28.90;37.71;99091.46;137309;1274;22101;-84
2023/07/14 10:44:00;;;;;;;3.30;1.90;;;;;;;28.78;37.84;99096.05;137322;1274;22211;-81
2023/07/14 10:47:04;;;;;;;3.50;1.80;;;;;;;28.79;37.48;99088.44;137335;1273;22908;-82
2023/07/14 10:50:06;;;;;;;2.90;2.00;;;;;;;28.85;36.02;99089.42;137317;1274;22997;-84
2023/07/14 10:53:08;;;;;;;4.10;1.90;;;;;;;28.72;37.38;99087.30;137319;1270;22228;-82
2023/07/14 10:56:12;;;;;;;3.90;1.70;;;;;;;28.76;36.97;99086.14;137355;1274;22209;-83
2023/07/14 10:59:15;;;;;;;5.90;2.30;;;;;;;28.87;35.73;99087.14;137377;1274;22347;-81
2023/07/14 11:02:17;;;;;;;;;;;;;;;28.71;36.03;99084.79;137403;1273;22499;-82
2023/07/14 11:05:20;;;;;;;4.20;2.10;;;;;;;28.51;37.34;99084.50;137432;1274;22099;-81
2023/07/14 11:08:22;;;;;;;6.10;2.10;;;;;;;28.53;36.42;99083.13;137436;1274;22154;-82
2023/07/14 11:11:24;;;;;;;2.70;1.60;;;;;;;28.64;35.37;99084.00;137388;1273;21938;-82
2023/07/14 11:14:27;;;;;;;24.30;2.90;;;;;;;28.80;36.01;99081.96;137453;1274;22296;-83
2023/07/14 11:17:29;;;;;;;2.20;1.90;;;;;;;28.98;35.44;99079.84;137370;1274;22252;-81
2023/07/14 11:20:32;;;;;;;3.20;2.00;;;;;;;28.92;33.85;99085.23;137406;1274;22107;-81
2023/07/14 11:23:34;;;;;;;2.30;1.80;;;;;;;28.73;33.92;99081.33;137414;1274;22154;-82
2023/07/14 11:26:38;;;;;;;9.00;2.90;;;;;;;28.63;33.89;99078.13;137294;1274;192061;-82
2023/07/14 11:29:40;;;;;;;2.70;1.70;;;;;;;28.69;34.68;99076.16;137409;1273;22115;-82
2023/07/14 11:32:43;;;;;;;3.70;1.60;;;;;;;28.85;33.24;99074.35;137492;1274;22201;-82
2023/07/14 11:35:45;;;;;;;2.80;1.70;;;;;;;28.87;32.62;99071.58;137432;1274;22106;-82
2023/07/14 11:38:47;;;;;;;2.40;1.70;;;;;;;28.88;32.68;99073.29;137421;1274;22312;-83
2023/07/14 11:41:50;;;;;;;1.70;1.60;;;;;;;28.97;33.59;99072.36;137435;1274;22149;-81
2023/07/14 11:44:52;;;;;;;2.00;1.90;;;;;;;29.42;33.54;99069.16;137540;1270;22110;-81
2023/07/14 11:47:55;;;;;;;3.30;1.80;;;;;;;30.01;33.68;99070.66;137552;1274;22135;-80
2023/07/14 11:51:04;;;;;;;4.00;1.70;;;;;;;30.38;31.51;99071.30;137538;1273;22277;-81
2023/07/14 11:54:07;;;;;;;2.60;1.40;;;;;;;30.16;30.58;99073.09;137536;1274;22196;-81
2023/07/14 11:57:09;;;;;;;8.90;2.10;;;;;;;29.83;32.20;99072.85;137492;1274;22105;-81
2023/07/14 12:00:12;;;;;;;5.20;1.80;;;;;;;29.55;33.56;99076.80;137481;1274;22172;-82
2023/07/14 12:03:15;;;;;;;2.70;2.00;;;;;;;29.20;33.14;99075.11;137478;1273;23152;-82
2023/07/14 12:06:17;;;;;;;1.90;1.70;;;;;;;28.65;33.04;99070.98;137446;1274;22104;-81
2023/07/14 12:09:20;;;;;;;1.70;1.60;;;;;;;28.25;33.94;99068.12;137397;1262;22393;-81
2023/07/14 12:12:23;;;;;;;2.90;2.30;;;;;;;27.88;34.67;99074.29;137424;1274;22121;-81
2023/07/14 12:15:25;;;;;;;2.40;2.00;;;;;;;27.50;34.52;99078.10;137370;1274;22084;-82
2023/07/14 12:18:28;;;;;;;3.40;2.40;;;;;;;27.23;35.94;99071.80;137295;1274;22092;-81
2023/07/14 12:21:30;;;;;;;4.80;2.20;;;;;;;27.12;36.63;99075.10;137321;1274;22561;-81
2023/07/14 12:24:32;;;;;;;3.20;2.30;;;;;;;27.07;37.06;99076.75;137323;1274;22248;-82
2023/07/14 12:27:35;;;;;;;3.50;2.20;;;;;;;27.08;37.12;99079.77;137326;1274;22274;-81
2023/07/14 12:30:38;;;;;;;4.50;2.40;;;;;;;27.12;37.11;99076.88;137343;1274;22298;-82
2023/07/14 12:33:40;;;;;;;4.70;1.90;;;;;;;27.31;36.67;99079.06;137304;1262;22239;-81
2023/07/14 12:36:43;;;;;;;2.10;1.80;;;;;;;27.83;36.46;99076.14;137352;1274;22626;-82
2023/07/14 12:39:46;;;;;;;3.70;1.90;;;;;;;28.36;35.60;99069.27;137321;1274;22110;-81
2023/07/14 12:42:48;;;;;;;2.60;2.40;;;;;;;28.66;34.63;99063.48;137333;1273;22279;-81
2023/07/14 12:45:50;;;;;;;2.60;2.00;;;;;;;28.87;34.57;99063.30;137322;1274;21987;-81
2023/07/14 12:48:53;;;;;;;4.00;2.40;;;;;;;29.11;34.53;99057.20;137336;1274;22820;-81
2023/07/14 12:51:55;;;;;;;5.10;2.00;;;;;;;29.44;33.79;99052.52;137309;1274;22117;-81
2023/07/14 12:54:58;;;;;;;3.20;1.80;;;;;;;29.76;32.99;99053.60;137295;1274;22115;-81
2023/07/14 12:58:00;;;;;;;3.80;2.10;;;;;;;29.79;32.18;99052.09;137294;1274;22122;-81
2023/07/14 13:01:03;;;;;;;2.90;1.90;;;;;;;29.78;31.04;99049.31;137346;1266;22087;-81
2023/07/14 13:04:05;;;;;;;3.90;1.80;;;;;;;29.68;31.02;99046.53;137317;1274;22157;-81
2023/07/14 13:07:08;;;;;;;1.90;1.80;;;;;;;29.74;31.47;99046.36;137336;1274;22349;-82
2023/07/14 13:10:10;;;;;;;3.70;2.00;;;;;;;29.99;31.13;99042.11;137348;1274;22923;-81
2023/07/14 13:13:13;;;;;;;4.30;1.80;;;;;;;30.06;31.81;99034.65;137327;1266;22152;-81
2023/07/14 13:16:15;;;;;;;3.60;1.80;;;;;;;30.08;31.04;99033.08;137369;1274;22189;-83
2023/07/14 13:19:18;;;;;;;7.90;2.70;;;;;;;30.01;30.98;99025.29;137339;1274;22120;-81
2023/07/14 13:22:20;;;;;;;3.30;2.40;;;;;;;30.05;31.71;99025.02;137337;1274;22120;-81
2023/07/14 13:25:23;;;;;;;3.60;1.60;;;;;;;30.36;31.89;99023.84;137366;1274;22298;-80
2023/07/14 13:28:25;;;;;;;3.30;1.90;;;;;;;30.48;31.35;99019.30;137348;1274;22734;-81
2023/07/14 13:31:28;;;;;;;3.10;2.00;;;;;;;30.80;31.30;99018.26;137326;1274;23107;-82
2023/07/14 13:34:30;;;;;;;4.00;1.90;;;;;;;30.90;30.65;99014.67;137358;1274;22782;-81
2023/07/14 13:37:33;;;;;;;5.20;2.00;;;;;;;30.14;31.61;99013.09;137396;1274;22210;-83
2023/07/14 13:40:35;;;;;;;5.50;2.40;;;;;;;29.79;31.76;99014.67;137440;1274;22302;-83
2023/07/14 13:43:38;;;;;;;6.10;2.20;;;;;;;29.35;32.33;99012.36;137434;1274;22618;-83
2023/07/14 13:46:40;;;;;;;8.10;2.20;;;;;;;29.06;33.04;99011.98;137447;1270;22272;-83
2023/07/14 13:49:45;;;;;;;3.40;1.90;;;;;;;28.91;33.14;99011.83;137439;1273;22625;-81
2023/07/14 13:52:48;;;;;;;2.40;2.00;;;;;;;28.72;33.44;99014.19;137487;1274;22793;-84
2023/07/14 13:55:50;;;;;;;2.60;2.00;;;;;;;28.89;34.26;99007.10;137480;1274;22177;-86
2023/07/14 13:58:53;;;;;;;4.60;2.10;;;;;;;29.16;32.83;99012.09;137413;1274;22219;-85